sensor_id;sensor_type;location;lat;lon;timestamp;P1;durP1;ratioP1;P2;durP2;ratioP2
72275;SDS011;61204;49.980;8.358;2022-11-20T00:01:15;21.52;;;14.45;;
72275;SDS011;61204;49.980;8.358;2022-11-20T00:03:48;22.40;;;15.70;;
72275;SDS011;61204;49.980;8.358;2022-11-20T00:06:16;23.10;;;15.18;;
72275;SDS011;61204;49.980;8.358;2022-11-20T00:08:45;25.70;;;15.60;;
72275;SDS011;61204;49.980;8.358;2022-11-20T00:11:12;25.42;;;16.20;;
72275;SDS011;61204;49.980;8.358;2022-11-20T00:13:44;23.73;;;16.02;;
72275;SDS011;61204;49.980;8.358;2022-11-20T00:16:13;22.90;;;15.40;;
72275;SDS011;61204;49.980;8.358;2022-11-20T00:18:43;25.85;;;16.35;;
72275;SDS011;61204;49.980;8.358;2022-11-20T00:21:10;24.00;;;15.20;;
72275;SDS011;61204;49.980;8.358;2022-11-20T00:23:53;25.48;;;15.82;;
72275;SDS011;61204;49.980;8.358;2022-11-20T00:26:22;24.92;;;16.30;;
72275;SDS011;61204;49.980;8.358;2022-11-20T00:28:52;25.08;;;15.60;;
72275;SDS011;61204;49.980;8.358;2022-11-20T00:31:24;26.08;;;15.55;;
72275;SDS011;61204;49.980;8.358;2022-11-20T00:33:52;26.52;;;16.15;;
72275;SDS011;61204;49.980;8.358;2022-11-20T00:36:19;24.50;;;15.95;;
72275;SDS011;61204;49.980;8.358;2022-11-20T00:38:53;22.95;;;15.32;;
72275;SDS011;61204;49.980;8.358;2022-11-20T00:41:22;25.17;;;16.33;;
72275;SDS011;61204;49.980;8.358;2022-11-20T00:43:53;26.90;;;17.77;;
72275;SDS011;61204;49.980;8.358;2022-11-20T00:46:24;27.42;;;17.05;;
72275;SDS011;61204;49.980;8.358;2022-11-20T00:48:52;27.38;;;17.27;;
72275;SDS011;61204;49.980;8.358;2022-11-20T00:51:20;25.85;;;16.95;;
72275;SDS011;61204;49.980;8.358;2022-11-20T00:53:50;27.33;;;17.20;;
72275;SDS011;61204;49.980;8.358;2022-11-20T00:56:16;28.67;;;17.23;;
72275;SDS011;61204;49.980;8.358;2022-11-20T00:58:45;26.73;;;17.70;;
72275;SDS011;61204;49.980;8.358;2022-11-20T01:01:18;30.55;;;18.20;;
72275;SDS011;61204;49.980;8.358;2022-11-20T01:03:51;26.70;;;17.25;;
72275;SDS011;61204;49.980;8.358;2022-11-20T01:06:28;30.65;;;17.90;;
72275;SDS011;61204;49.980;8.358;2022-11-20T01:08:59;29.45;;;18.40;;
72275;SDS011;61204;49.980;8.358;2022-11-20T01:11:33;28.90;;;16.80;;
72275;SDS011;61204;49.980;8.358;2022-11-20T01:14:04;28.58;;;18.08;;
72275;SDS011;61204;49.980;8.358;2022-11-20T01:16:38;30.52;;;19.05;;
72275;SDS011;61204;49.980;8.358;2022-11-20T01:19:12;30.33;;;18.00;;
72275;SDS011;61204;49.980;8.358;2022-11-20T01:21:50;30.35;;;18.17;;
72275;SDS011;61204;49.980;8.358;2022-11-20T01:24:19;30.30;;;19.55;;
72275;SDS011;61204;49.980;8.358;2022-11-20T01:26:48;31.25;;;19.00;;
72275;SDS011;61204;49.980;8.358;2022-11-20T01:29:17;29.15;;;17.48;;
72275;SDS011;61204;49.980;8.358;2022-11-20T01:31:49;31.15;;;17.77;;
72275;SDS011;61204;49.980;8.358;2022-11-20T01:34:18;29.42;;;17.98;;
72275;SDS011;61204;49.980;8.358;2022-11-20T01:36:47;28.95;;;18.10;;
72275;SDS011;61204;49.980;8.358;2022-11-20T01:39:17;33.83;;;19.02;;
72275;SDS011;61204;49.980;8.358;2022-11-20T01:47:35;31.58;;;18.98;;
72275;SDS011;61204;49.980;8.358;2022-11-20T01:50:11;36.67;;;20.05;;
72275;SDS011;61204;49.980;8.358;2022-11-20T01:52:56;32.83;;;19.38;;
72275;SDS011;61204;49.980;8.358;2022-11-20T01:55:32;34.92;;;19.30;;
72275;SDS011;61204;49.980;8.358;2022-11-20T01:58:09;32.25;;;19.10;;
72275;SDS011;61204;49.980;8.358;2022-11-20T02:00:35;33.10;;;19.02;;
72275;SDS011;61204;49.980;8.358;2022-11-20T02:03:05;31.65;;;18.67;;
72275;SDS011;61204;49.980;8.358;2022-11-20T02:05:41;32.17;;;19.02;;
72275;SDS011;61204;49.980;8.358;2022-11-20T02:08:17;36.28;;;20.10;;
72275;SDS011;61204;49.980;8.358;2022-11-20T02:10:44;33.78;;;20.35;;
72275;SDS011;61204;49.980;8.358;2022-11-20T02:13:10;35.25;;;20.42;;
72275;SDS011;61204;49.980;8.358;2022-11-20T02:15:54;31.23;;;19.50;;
72275;SDS011;61204;49.980;8.358;2022-11-20T02:18:20;34.25;;;19.85;;
72275;SDS011;61204;49.980;8.358;2022-11-20T02:20:49;33.58;;;20.45;;
72275;SDS011;61204;49.980;8.358;2022-11-20T02:26:16;35.45;;;21.05;;
72275;SDS011;61204;49.980;8.358;2022-11-20T02:28:47;35.10;;;20.33;;
72275;SDS011;61204;49.980;8.358;2022-11-20T02:31:12;35.65;;;20.50;;
72275;SDS011;61204;49.980;8.358;2022-11-20T02:33:38;34.63;;;19.65;;
72275;SDS011;61204;49.980;8.358;2022-11-20T02:36:03;34.63;;;19.23;;
72275;SDS011;61204;49.980;8.358;2022-11-20T02:38:30;34.85;;;20.38;;
72275;SDS011;61204;49.980;8.358;2022-11-20T02:40:56;34.30;;;19.52;;
72275;SDS011;61204;49.980;8.358;2022-11-20T02:43:22;38.60;;;21.58;;
72275;SDS011;61204;49.980;8.358;2022-11-20T02:45:48;38.78;;;20.85;;
72275;SDS011;61204;49.980;8.358;2022-11-20T02:48:14;35.88;;;21.20;;
72275;SDS011;61204;49.980;8.358;2022-11-20T02:50:39;39.33;;;21.77;;
72275;SDS011;61204;49.980;8.358;2022-11-20T02:53:05;34.58;;;20.95;;
72275;SDS011;61204;49.980;8.358;2022-11-20T02:55:32;35.72;;;19.63;;
72275;SDS011;61204;49.980;8.358;2022-11-20T02:57:57;37.67;;;21.13;;
72275;SDS011;61204;49.980;8.358;2022-11-20T03:00:23;35.58;;;21.10;;
72275;SDS011;61204;49.980;8.358;2022-11-20T03:02:48;35.83;;;21.70;;
72275;SDS011;61204;49.980;8.358;2022-11-20T03:05:14;34.90;;;20.05;;
72275;SDS011;61204;49.980;8.358;2022-11-20T03:07:40;35.05;;;20.58;;
72275;SDS011;61204;49.980;8.358;2022-11-20T03:10:05;36.03;;;20.70;;
72275;SDS011;61204;49.980;8.358;2022-11-20T03:12:32;38.28;;;21.05;;
72275;SDS011;61204;49.980;8.358;2022-11-20T03:14:57;40.53;;;21.20;;
72275;SDS011;61204;49.980;8.358;2022-11-20T03:17:23;38.08;;;22.08;;
72275;SDS011;61204;49.980;8.358;2022-11-20T03:19:48;36.25;;;20.88;;
72275;SDS011;61204;49.980;8.358;2022-11-20T03:22:14;33.78;;;20.42;;
72275;SDS011;61204;49.980;8.358;2022-11-20T03:24:39;33.83;;;19.52;;
72275;SDS011;61204;49.980;8.358;2022-11-20T03:27:05;33.63;;;20.42;;
72275;SDS011;61204;49.980;8.358;2022-11-20T03:29:31;35.92;;;21.10;;
72275;SDS011;61204;49.980;8.358;2022-11-20T03:31:57;34.58;;;20.55;;
72275;SDS011;61204;49.980;8.358;2022-11-20T03:34:23;37.60;;;21.65;;
72275;SDS011;61204;49.980;8.358;2022-11-20T03:36:48;37.70;;;22.00;;
72275;SDS011;61204;49.980;8.358;2022-11-20T03:39:14;35.45;;;22.23;;
72275;SDS011;61204;49.980;8.358;2022-11-20T03:41:40;37.53;;;21.10;;
72275;SDS011;61204;49.980;8.358;2022-11-20T03:44:07;38.75;;;21.13;;
72275;SDS011;61204;49.980;8.358;2022-11-20T03:46:35;38.00;;;21.08;;
72275;SDS011;61204;49.980;8.358;2022-11-20T03:49:02;39.58;;;20.73;;
72275;SDS011;61204;49.980;8.358;2022-11-20T03:51:29;37.75;;;21.65;;
72275;SDS011;61204;49.980;8.358;2022-11-20T03:54:00;37.10;;;22.33;;
72275;SDS011;61204;49.980;8.358;2022-11-20T03:56:33;39.38;;;22.17;;
72275;SDS011;61204;49.980;8.358;2022-11-20T03:59:03;39.20;;;21.13;;
72275;SDS011;61204;49.980;8.358;2022-11-20T04:01:30;45.75;;;22.55;;
72275;SDS011;61204;49.980;8.358;2022-11-20T04:04:00;43.63;;;21.77;;
72275;SDS011;61204;49.980;8.358;2022-11-20T04:06:28;36.42;;;21.95;;
72275;SDS011;61204;49.980;8.358;2022-11-20T04:09:01;39.78;;;22.40;;
72275;SDS011;61204;49.980;8.358;2022-11-20T04:11:32;42.55;;;22.10;;
72275;SDS011;61204;49.980;8.358;2022-11-20T04:14:02;37.97;;;21.92;;
72275;SDS011;61204;49.980;8.358;2022-11-20T04:16:32;41.40;;;22.27;;
72275;SDS011;61204;49.980;8.358;2022-11-20T04:19:02;39.75;;;21.83;;
72275;SDS011;61204;49.980;8.358;2022-11-20T04:21:34;36.17;;;20.92;;
72275;SDS011;61204;49.980;8.358;2022-11-20T04:24:00;35.58;;;21.02;;
72275;SDS011;61204;49.980;8.358;2022-11-20T04:26:27;40.75;;;23.13;;
72275;SDS011;61204;49.980;8.358;2022-11-20T04:28:55;45.13;;;23.17;;
72275;SDS011;61204;49.980;8.358;2022-11-20T04:31:25;42.80;;;22.92;;
72275;SDS011;61204;49.980;8.358;2022-11-20T04:33:59;40.30;;;22.30;;
72275;SDS011;61204;49.980;8.358;2022-11-20T04:36:31;34.57;;;20.57;;
72275;SDS011;61204;49.980;8.358;2022-11-20T04:38:59;36.80;;;21.52;;
72275;SDS011;61204;49.980;8.358;2022-11-20T04:41:30;33.38;;;19.65;;
72275;SDS011;61204;49.980;8.358;2022-11-20T04:44:00;37.20;;;21.38;;
72275;SDS011;61204;49.980;8.358;2022-11-20T04:46:30;38.65;;;20.58;;
72275;SDS011;61204;49.980;8.358;2022-11-20T04:49:03;34.95;;;19.67;;
72275;SDS011;61204;49.980;8.358;2022-11-20T04:51:30;36.67;;;19.65;;
72275;SDS011;61204;49.980;8.358;2022-11-20T04:53:57;39.92;;;21.33;;
72275;SDS011;61204;49.980;8.358;2022-11-20T04:56:23;39.47;;;20.15;;
72275;SDS011;61204;49.980;8.358;2022-11-20T04:58:48;39.08;;;21.25;;
72275;SDS011;61204;49.980;8.358;2022-11-20T05:01:17;38.67;;;21.08;;
72275;SDS011;61204;49.980;8.358;2022-11-20T05:03:49;42.05;;;21.67;;
72275;SDS011;61204;49.980;8.358;2022-11-20T05:06:17;39.20;;;22.48;;
72275;SDS011;61204;49.980;8.358;2022-11-20T05:08:46;41.20;;;22.20;;
72275;SDS011;61204;49.980;8.358;2022-11-20T05:11:13;47.70;;;22.92;;
72275;SDS011;61204;49.980;8.358;2022-11-20T05:13:43;51.33;;;22.20;;
72275;SDS011;61204;49.980;8.358;2022-11-20T05:16:12;43.60;;;23.30;;
72275;SDS011;61204;49.980;8.358;2022-11-20T05:18:46;45.28;;;22.67;;
72275;SDS011;61204;49.980;8.358;2022-11-20T05:21:12;41.45;;;22.02;;
72275;SDS011;61204;49.980;8.358;2022-11-20T05:23:40;40.42;;;20.83;;
72275;SDS011;61204;49.980;8.358;2022-11-20T05:26:08;43.50;;;22.30;;
72275;SDS011;61204;49.980;8.358;2022-11-20T05:28:43;37.95;;;21.05;;
72275;SDS011;61204;49.980;8.358;2022-11-20T05:31:11;42.67;;;21.73;;
72275;SDS011;61204;49.980;8.358;2022-11-20T05:33:43;37.03;;;20.42;;
72275;SDS011;61204;49.980;8.358;2022-11-20T05:36:11;42.17;;;21.95;;
72275;SDS011;61204;49.980;8.358;2022-11-20T05:38:39;41.28;;;21.77;;
72275;SDS011;61204;49.980;8.358;2022-11-20T05:41:07;43.35;;;21.60;;
72275;SDS011;61204;49.980;8.358;2022-11-20T05:43:44;41.40;;;21.45;;
72275;SDS011;61204;49.980;8.358;2022-11-20T05:46:14;41.17;;;20.30;;
72275;SDS011;61204;49.980;8.358;2022-11-20T05:48:44;40.30;;;20.38;;
72275;SDS011;61204;49.980;8.358;2022-11-20T05:51:12;42.53;;;22.55;;
72275;SDS011;61204;49.980;8.358;2022-11-20T05:53:42;43.97;;;22.35;;
72275;SDS011;61204;49.980;8.358;2022-11-20T05:56:10;44.03;;;22.67;;
72275;SDS011;61204;49.980;8.358;2022-11-20T05:58:40;40.28;;;20.95;;
72275;SDS011;61204;49.980;8.358;2022-11-20T06:01:08;40.13;;;21.95;;
72275;SDS011;61204;49.980;8.358;2022-11-20T06:03:47;36.25;;;20.38;;
72275;SDS011;61204;49.980;8.358;2022-11-20T06:06:15;42.72;;;20.40;;
72275;SDS011;61204;49.980;8.358;2022-11-20T06:08:44;39.83;;;20.48;;
72275;SDS011;61204;49.980;8.358;2022-11-20T06:11:11;39.75;;;20.95;;
72275;SDS011;61204;49.980;8.358;2022-11-20T06:13:39;42.70;;;20.75;;
72275;SDS011;61204;49.980;8.358;2022-11-20T06:16:06;39.95;;;23.02;;
72275;SDS011;61204;49.980;8.358;2022-11-20T06:18:32;46.67;;;21.70;;
72275;SDS011;61204;49.980;8.358;2022-11-20T06:21:05;41.10;;;22.10;;
72275;SDS011;61204;49.980;8.358;2022-11-20T06:23:36;43.90;;;23.23;;
72275;SDS011;61204;49.980;8.358;2022-11-20T06:26:03;46.05;;;24.67;;
72275;SDS011;61204;49.980;8.358;2022-11-20T06:28:33;48.13;;;24.25;;
72275;SDS011;61204;49.980;8.358;2022-11-20T06:30:59;48.00;;;25.08;;
72275;SDS011;61204;49.980;8.358;2022-11-20T06:33:25;47.35;;;24.23;;
72275;SDS011;61204;49.980;8.358;2022-11-20T06:35:51;47.40;;;22.23;;
72275;SDS011;61204;49.980;8.358;2022-11-20T06:38:17;49.92;;;24.30;;
72275;SDS011;61204;49.980;8.358;2022-11-20T06:40:42;44.38;;;21.92;;
72275;SDS011;61204;49.980;8.358;2022-11-20T06:43:09;46.72;;;24.83;;
72275;SDS011;61204;49.980;8.358;2022-11-20T06:45:35;49.72;;;24.35;;
72275;SDS011;61204;49.980;8.358;2022-11-20T06:48:02;49.17;;;24.42;;
72275;SDS011;61204;49.980;8.358;2022-11-20T06:50:28;47.75;;;25.58;;
72275;SDS011;61204;49.980;8.358;2022-11-20T06:52:54;48.45;;;23.48;;
72275;SDS011;61204;49.980;8.358;2022-11-20T06:55:20;48.50;;;24.27;;
72275;SDS011;61204;49.980;8.358;2022-11-20T06:57:45;51.75;;;25.10;;
72275;SDS011;61204;49.980;8.358;2022-11-20T07:00:11;46.17;;;22.77;;
72275;SDS011;61204;49.980;8.358;2022-11-20T07:02:38;48.75;;;22.85;;
72275;SDS011;61204;49.980;8.358;2022-11-20T07:05:04;48.03;;;23.77;;
72275;SDS011;61204;49.980;8.358;2022-11-20T07:07:29;47.20;;;24.20;;
72275;SDS011;61204;49.980;8.358;2022-11-20T07:09:55;51.47;;;24.80;;
72275;SDS011;61204;49.980;8.358;2022-11-20T07:12:21;54.00;;;23.38;;
72275;SDS011;61204;49.980;8.358;2022-11-20T07:14:46;57.00;;;25.05;;
72275;SDS011;61204;49.980;8.358;2022-11-20T07:17:12;42.95;;;22.98;;
72275;SDS011;61204;49.980;8.358;2022-11-20T07:19:38;47.53;;;22.77;;
72275;SDS011;61204;49.980;8.358;2022-11-20T07:22:03;46.78;;;23.33;;
72275;SDS011;61204;49.980;8.358;2022-11-20T07:24:29;44.90;;;24.13;;
72275;SDS011;61204;49.980;8.358;2022-11-20T07:26:55;54.05;;;24.23;;
72275;SDS011;61204;49.980;8.358;2022-11-20T07:29:20;48.85;;;24.30;;
72275;SDS011;61204;49.980;8.358;2022-11-20T07:31:46;55.05;;;23.90;;
72275;SDS011;61204;49.980;8.358;2022-11-20T07:34:12;49.08;;;22.35;;
72275;SDS011;61204;49.980;8.358;2022-11-20T07:36:37;46.67;;;21.83;;
72275;SDS011;61204;49.980;8.358;2022-11-20T07:39:03;46.10;;;23.20;;
72275;SDS011;61204;49.980;8.358;2022-11-20T07:41:29;45.95;;;22.73;;
72275;SDS011;61204;49.980;8.358;2022-11-20T07:43:54;48.83;;;22.98;;
72275;SDS011;61204;49.980;8.358;2022-11-20T07:46:20;46.63;;;23.33;;
72275;SDS011;61204;49.980;8.358;2022-11-20T07:48:45;46.47;;;21.63;;
72275;SDS011;61204;49.980;8.358;2022-11-20T07:51:11;47.03;;;23.17;;
72275;SDS011;61204;49.980;8.358;2022-11-20T07:53:37;45.10;;;21.20;;
72275;SDS011;61204;49.980;8.358;2022-11-20T07:56:02;42.92;;;23.33;;
72275;SDS011;61204;49.980;8.358;2022-11-20T07:58:29;47.95;;;22.85;;
72275;SDS011;61204;49.980;8.358;2022-11-20T08:00:57;51.05;;;23.83;;
72275;SDS011;61204;49.980;8.358;2022-11-20T08:03:28;45.17;;;22.63;;
72275;SDS011;61204;49.980;8.358;2022-11-20T08:05:53;47.78;;;24.17;;
72275;SDS011;61204;49.980;8.358;2022-11-20T08:08:19;49.03;;;24.38;;
72275;SDS011;61204;49.980;8.358;2022-11-20T08:10:46;48.20;;;23.23;;
72275;SDS011;61204;49.980;8.358;2022-11-20T08:13:12;40.72;;;22.25;;
72275;SDS011;61204;49.980;8.358;2022-11-20T08:15:56;45.75;;;22.77;;
72275;SDS011;61204;49.980;8.358;2022-11-20T08:18:21;52.22;;;23.10;;
72275;SDS011;61204;49.980;8.358;2022-11-20T08:20:47;40.30;;;21.77;;
72275;SDS011;61204;49.980;8.358;2022-11-20T08:23:12;45.63;;;23.17;;
72275;SDS011;61204;49.980;8.358;2022-11-20T08:25:38;42.58;;;21.80;;
72275;SDS011;61204;49.980;8.358;2022-11-20T08:28:05;41.85;;;21.95;;
72275;SDS011;61204;49.980;8.358;2022-11-20T08:30:34;46.70;;;23.05;;
72275;SDS011;61204;49.980;8.358;2022-11-20T08:33:03;43.45;;;22.40;;
72275;SDS011;61204;49.980;8.358;2022-11-20T08:35:34;47.75;;;22.83;;
72275;SDS011;61204;49.980;8.358;2022-11-20T08:38:02;38.53;;;20.55;;
72275;SDS011;61204;49.980;8.358;2022-11-20T08:40:30;41.38;;;20.10;;
72275;SDS011;61204;49.980;8.358;2022-11-20T08:42:57;36.80;;;19.60;;
72275;SDS011;61204;49.980;8.358;2022-11-20T08:45:23;41.03;;;19.30;;
72275;SDS011;61204;49.980;8.358;2022-11-20T08:47:49;36.88;;;20.00;;
72275;SDS011;61204;49.980;8.358;2022-11-20T08:50:15;38.35;;;20.92;;
72275;SDS011;61204;49.980;8.358;2022-11-20T08:52:42;35.17;;;20.30;;
72275;SDS011;61204;49.980;8.358;2022-11-20T08:55:08;37.45;;;20.75;;
72275;SDS011;61204;49.980;8.358;2022-11-20T08:57:35;35.83;;;19.83;;
72275;SDS011;61204;49.980;8.358;2022-11-20T09:00:03;34.22;;;20.55;;
72275;SDS011;61204;49.980;8.358;2022-11-20T09:02:31;35.38;;;19.92;;
72275;SDS011;61204;49.980;8.358;2022-11-20T09:04:57;34.50;;;19.23;;
72275;SDS011;61204;49.980;8.358;2022-11-20T09:07:23;42.38;;;23.15;;
72275;SDS011;61204;49.980;8.358;2022-11-20T09:09:49;38.00;;;22.63;;
72275;SDS011;61204;49.980;8.358;2022-11-20T09:12:14;37.08;;;19.52;;
72275;SDS011;61204;49.980;8.358;2022-11-20T09:14:40;32.35;;;17.33;;
72275;SDS011;61204;49.980;8.358;2022-11-20T09:17:06;32.47;;;18.52;;
72275;SDS011;61204;49.980;8.358;2022-11-20T09:19:32;32.85;;;18.20;;
72275;SDS011;61204;49.980;8.358;2022-11-20T09:21:58;32.47;;;18.55;;
72275;SDS011;61204;49.980;8.358;2022-11-20T09:24:25;27.95;;;18.15;;
72275;SDS011;61204;49.980;8.358;2022-11-20T09:26:52;33.30;;;19.67;;
72275;SDS011;61204;49.980;8.358;2022-11-20T09:29:18;30.65;;;18.27;;
72275;SDS011;61204;49.980;8.358;2022-11-20T09:31:44;29.65;;;17.77;;
72275;SDS011;61204;49.980;8.358;2022-11-20T09:34:09;32.35;;;18.20;;
72275;SDS011;61204;49.980;8.358;2022-11-20T09:36:35;31.45;;;18.63;;
72275;SDS011;61204;49.980;8.358;2022-11-20T09:39:00;33.47;;;19.13;;
72275;SDS011;61204;49.980;8.358;2022-11-20T09:41:36;31.98;;;18.90;;
72275;SDS011;61204;49.980;8.358;2022-11-20T09:54:26;31.67;;;17.92;;
72275;SDS011;61204;49.980;8.358;2022-11-20T09:57:11;29.08;;;18.52;;
72275;SDS011;61204;49.980;8.358;2022-11-20T09:59:49;29.10;;;18.65;;
72275;SDS011;61204;49.980;8.358;2022-11-20T10:05:03;30.80;;;17.38;;
72275;SDS011;61204;49.980;8.358;2022-11-20T10:10:56;29.88;;;16.58;;
72275;SDS011;61204;49.980;8.358;2022-11-20T10:16:42;29.55;;;18.60;;
72275;SDS011;61204;49.980;8.358;2022-11-20T10:19:43;30.88;;;18.98;;
72275;SDS011;61204;49.980;8.358;2022-11-20T10:29:27;30.25;;;19.67;;
72275;SDS011;61204;49.980;8.358;2022-11-20T10:32:20;27.90;;;18.17;;
72275;SDS011;61204;49.980;8.358;2022-11-20T10:35:07;29.13;;;18.92;;
72275;SDS011;61204;49.980;8.358;2022-11-20T10:37:56;31.15;;;18.52;;
72275;SDS011;61204;49.980;8.358;2022-11-20T10:40:35;34.35;;;20.05;;
72275;SDS011;61204;49.980;8.358;2022-11-20T10:46:01;27.55;;;18.25;;
72275;SDS011;61204;49.980;8.358;2022-11-20T10:48:37;29.50;;;17.95;;
72275;SDS011;61204;49.980;8.358;2022-11-20T10:54:31;31.02;;;19.13;;
72275;SDS011;61204;49.980;8.358;2022-11-20T11:00:20;29.63;;;17.88;;
72275;SDS011;61204;49.980;8.358;2022-11-20T11:02:50;31.17;;;18.48;;
72275;SDS011;61204;49.980;8.358;2022-11-20T11:07:45;27.85;;;17.88;;
72275;SDS011;61204;49.980;8.358;2022-11-20T11:10:18;28.98;;;18.02;;
72275;SDS011;61204;49.980;8.358;2022-11-20T11:13:01;31.00;;;19.83;;
72275;SDS011;61204;49.980;8.358;2022-11-20T11:15:28;27.60;;;17.63;;
72275;SDS011;61204;49.980;8.358;2022-11-20T11:18:04;27.55;;;17.63;;
72275;SDS011;61204;49.980;8.358;2022-11-20T11:20:35;27.27;;;17.83;;
72275;SDS011;61204;49.980;8.358;2022-11-20T11:23:02;27.95;;;17.40;;
72275;SDS011;61204;49.980;8.358;2022-11-20T11:25:30;29.00;;;18.05;;
72275;SDS011;61204;49.980;8.358;2022-11-20T11:28:20;27.65;;;17.88;;
72275;SDS011;61204;49.980;8.358;2022-11-20T11:30:51;27.33;;;18.40;;
72275;SDS011;61204;49.980;8.358;2022-11-20T11:33:27;30.35;;;18.38;;
72275;SDS011;61204;49.980;8.358;2022-11-20T11:36:02;28.08;;;17.73;;
72275;SDS011;61204;49.980;8.358;2022-11-20T11:38:42;28.35;;;17.17;;
72275;SDS011;61204;49.980;8.358;2022-11-20T11:41:15;30.83;;;17.45;;
72275;SDS011;61204;49.980;8.358;2022-11-20T11:43:51;31.20;;;18.75;;
72275;SDS011;61204;49.980;8.358;2022-11-20T11:46:49;28.80;;;18.08;;
72275;SDS011;61204;49.980;8.358;2022-11-20T11:49:21;27.00;;;17.75;;
72275;SDS011;61204;49.980;8.358;2022-11-20T11:51:56;27.30;;;17.85;;
72275;SDS011;61204;49.980;8.358;2022-11-20T11:54:57;27.23;;;16.90;;
72275;SDS011;61204;49.980;8.358;2022-11-20T11:58:08;24.92;;;16.98;;
72275;SDS011;61204;49.980;8.358;2022-11-20T12:07:15;26.33;;;16.42;;
72275;SDS011;61204;49.980;8.358;2022-11-20T12:09:55;25.90;;;15.68;;
72275;SDS011;61204;49.980;8.358;2022-11-20T12:12:31;24.13;;;16.13;;
72275;SDS011;61204;49.980;8.358;2022-11-20T12:15:08;23.33;;;16.38;;
72275;SDS011;61204;49.980;8.358;2022-11-20T12:17:44;20.23;;;13.48;;
72275;SDS011;61204;49.980;8.358;2022-11-20T12:20:11;20.58;;;14.48;;
72275;SDS011;61204;49.980;8.358;2022-11-20T12:32:36;15.63;;;11.30;;
72275;SDS011;61204;49.980;8.358;2022-11-20T12:45:46;18.45;;;12.27;;
72275;SDS011;61204;49.980;8.358;2022-11-20T12:51:19;20.17;;;13.80;;
72275;SDS011;61204;49.980;8.358;2022-11-20T13:00:15;22.20;;;14.00;;
72275;SDS011;61204;49.980;8.358;2022-11-20T13:02:59;20.52;;;13.52;;
72275;SDS011;61204;49.980;8.358;2022-11-20T13:06:14;19.35;;;13.13;;
72275;SDS011;61204;49.980;8.358;2022-11-20T13:08:45;19.48;;;13.20;;
72275;SDS011;61204;49.980;8.358;2022-11-20T13:11:27;18.65;;;12.32;;
72275;SDS011;61204;49.980;8.358;2022-11-20T13:17:22;17.98;;;11.35;;
72275;SDS011;61204;49.980;8.358;2022-11-20T13:20:05;15.85;;;12.05;;
72275;SDS011;61204;49.980;8.358;2022-11-20T13:22:43;16.30;;;11.52;;
72275;SDS011;61204;49.980;8.358;2022-11-20T13:25:26;17.57;;;11.90;;
72275;SDS011;61204;49.980;8.358;2022-11-20T13:28:26;17.52;;;12.35;;
72275;SDS011;61204;49.980;8.358;2022-11-20T13:30:56;18.33;;;12.32;;
72275;SDS011;61204;49.980;8.358;2022-11-20T13:33:28;23.58;;;13.88;;
72275;SDS011;61204;49.980;8.358;2022-11-20T13:36:05;22.52;;;13.73;;
72275;SDS011;61204;49.980;8.358;2022-11-20T13:38:51;23.77;;;14.57;;
72275;SDS011;61204;49.980;8.358;2022-11-20T13:46:38;23.38;;;15.43;;
72275;SDS011;61204;49.980;8.358;2022-11-20T13:49:23;26.10;;;16.20;;
72275;SDS011;61204;49.980;8.358;2022-11-20T13:58:21;23.25;;;14.88;;
72275;SDS011;61204;49.980;8.358;2022-11-20T14:01:30;22.08;;;14.90;;
72275;SDS011;61204;49.980;8.358;2022-11-20T14:03:57;21.27;;;13.25;;
72275;SDS011;61204;49.980;8.358;2022-11-20T14:06:28;19.35;;;13.43;;
72275;SDS011;61204;49.980;8.358;2022-11-20T14:08:59;21.45;;;14.20;;
72275;SDS011;61204;49.980;8.358;2022-11-20T14:11:27;28.58;;;13.82;;
72275;SDS011;61204;49.980;8.358;2022-11-20T14:14:17;20.02;;;13.43;;
72275;SDS011;61204;49.980;8.358;2022-11-20T14:16:52;19.55;;;12.68;;
72275;SDS011;61204;49.980;8.358;2022-11-20T14:19:33;21.70;;;13.32;;
72275;SDS011;61204;49.980;8.358;2022-11-20T14:25:14;23.27;;;14.95;;
72275;SDS011;61204;49.980;8.358;2022-11-20T14:27:52;22.63;;;14.43;;
72275;SDS011;61204;49.980;8.358;2022-11-20T14:30:26;23.00;;;14.80;;
72275;SDS011;61204;49.980;8.358;2022-11-20T14:33:12;23.35;;;14.77;;
72275;SDS011;61204;49.980;8.358;2022-11-20T14:35:44;24.55;;;14.85;;
72275;SDS011;61204;49.980;8.358;2022-11-20T14:38:15;23.38;;;15.35;;
72275;SDS011;61204;49.980;8.358;2022-11-20T14:40:48;24.63;;;16.17;;
72275;SDS011;61204;49.980;8.358;2022-11-20T14:45:59;26.20;;;14.88;;
72275;SDS011;61204;49.980;8.358;2022-11-20T14:48:40;24.80;;;15.05;;
72275;SDS011;61204;49.980;8.358;2022-11-20T14:56:40;23.58;;;15.60;;
72275;SDS011;61204;49.980;8.358;2022-11-20T14:59:07;25.90;;;15.07;;
72275;SDS011;61204;49.980;8.358;2022-11-20T15:01:34;25.60;;;15.82;;
72275;SDS011;61204;49.980;8.358;2022-11-20T15:06:36;27.52;;;16.23;;
72275;SDS011;61204;49.980;8.358;2022-11-20T15:09:16;29.15;;;17.10;;
72275;SDS011;61204;49.980;8.358;2022-11-20T15:11:50;28.98;;;17.40;;
72275;SDS011;61204;49.980;8.358;2022-11-20T15:14:27;27.50;;;16.57;;
72275;SDS011;61204;49.980;8.358;2022-11-20T15:16:57;28.13;;;16.50;;
72275;SDS011;61204;49.980;8.358;2022-11-20T15:19:25;29.33;;;16.77;;
72275;SDS011;61204;49.980;8.358;2022-11-20T15:21:52;26.65;;;15.18;;
72275;SDS011;61204;49.980;8.358;2022-11-20T15:24:18;29.52;;;16.52;;
72275;SDS011;61204;49.980;8.358;2022-11-20T15:26:44;26.77;;;16.13;;
72275;SDS011;61204;49.980;8.358;2022-11-20T15:29:12;26.17;;;16.13;;
72275;SDS011;61204;49.980;8.358;2022-11-20T15:31:45;27.58;;;17.38;;
72275;SDS011;61204;49.980;8.358;2022-11-20T15:34:12;31.75;;;18.40;;
72275;SDS011;61204;49.980;8.358;2022-11-20T15:36:40;30.13;;;17.95;;
72275;SDS011;61204;49.980;8.358;2022-11-20T15:39:07;41.47;;;19.27;;
72275;SDS011;61204;49.980;8.358;2022-11-20T15:41:35;30.52;;;17.85;;
72275;SDS011;61204;49.980;8.358;2022-11-20T15:44:02;32.95;;;18.15;;
72275;SDS011;61204;49.980;8.358;2022-11-20T15:46:33;32.03;;;18.75;;
72275;SDS011;61204;49.980;8.358;2022-11-20T15:49:10;29.83;;;17.85;;
72275;SDS011;61204;49.980;8.358;2022-11-20T15:51:41;28.30;;;18.48;;
72275;SDS011;61204;49.980;8.358;2022-11-20T15:54:18;31.52;;;18.45;;
72275;SDS011;61204;49.980;8.358;2022-11-20T15:56:48;32.85;;;17.83;;
72275;SDS011;61204;49.980;8.358;2022-11-20T15:59:17;32.95;;;19.30;;
72275;SDS011;61204;49.980;8.358;2022-11-20T16:01:43;26.58;;;17.23;;
72275;SDS011;61204;49.980;8.358;2022-11-20T16:04:13;31.10;;;17.95;;
72275;SDS011;61204;49.980;8.358;2022-11-20T16:06:41;32.08;;;17.58;;
72275;SDS011;61204;49.980;8.358;2022-11-20T16:09:07;29.83;;;17.73;;
72275;SDS011;61204;49.980;8.358;2022-11-20T16:11:34;34.70;;;20.15;;
72275;SDS011;61204;49.980;8.358;2022-11-20T16:14:01;33.28;;;19.95;;
72275;SDS011;61204;49.980;8.358;2022-11-20T16:19:13;28.60;;;17.17;;
72275;SDS011;61204;49.980;8.358;2022-11-20T16:21:40;33.67;;;19.02;;
72275;SDS011;61204;49.980;8.358;2022-11-20T16:24:08;33.90;;;19.70;;
72275;SDS011;61204;49.980;8.358;2022-11-20T16:26:37;31.70;;;17.90;;
72275;SDS011;61204;49.980;8.358;2022-11-20T16:29:05;28.10;;;16.15;;
72275;SDS011;61204;49.980;8.358;2022-11-20T16:31:32;36.47;;;19.00;;
72275;SDS011;61204;49.980;8.358;2022-11-20T16:33:59;30.90;;;18.40;;
72275;SDS011;61204;49.980;8.358;2022-11-20T16:36:29;35.20;;;17.58;;